Feura Bush, New York
Current Conditions -  °F | °C
As of 12:51 PM on Friday 28 Nov 2014 (Local Time) from KALB Reporting Station
Broken Clouds Broken Clouds  
Wind Chill: 18°   Ceiling: 4400
Heat Index: 30°   Visibility: 10mi
Dew Point: 17°   Wind: 17mph
Humidity: 59%   Direction: 290°WNW
Pressure: 30.14"   Gusts: 22mph
Location:  42.58°N, 73.88°W
Report Text: KALB 281751Z 29015G19KT 10SM SCT032 BKN044 BKN060 M01/M08 A3014 RMK AO2 SLP210 VIRGA OHD VCSH SW-W 4/007 933007 T10111083 11006 21039 58007
Loading
Personal Weather Stations






























Interactive Weather Map New forecast layout! Learn more

10-Day Weather Forecast

Advertisements
Track Severe Weather on mobile